createdAt,value
2023-01-26T00:01:45.164Z,88.40
2023-01-26T00:04:13.899Z,88.36
2023-01-26T00:06:43.304Z,88.36
2023-01-26T00:09:15.599Z,88.34
2023-01-26T00:11:43.871Z,88.38
2023-01-26T00:14:11.658Z,88.43
2023-01-26T00:16:39.961Z,88.30
2023-01-26T00:19:08.915Z,88.32
2023-01-26T00:21:36.766Z,88.30
2023-01-26T00:24:05.192Z,88.58
2023-01-26T00:26:33.130Z,88.52
2023-01-26T00:29:01.581Z,88.58
2023-01-26T00:31:29.813Z,88.47
2023-01-26T00:33:57.935Z,88.40
2023-01-26T00:36:27.557Z,88.48
2023-01-26T00:38:56.660Z,88.74
2023-01-26T00:41:43.369Z,88.74
2023-01-26T00:44:11.369Z,88.74
2023-01-26T00:46:39.516Z,88.87
2023-01-26T00:49:08.162Z,88.89
2023-01-26T00:51:36.033Z,88.72
2023-01-26T00:54:05.356Z,88.69
2023-01-26T00:56:33.270Z,88.80
2023-01-26T00:59:01.054Z,89.10
2023-01-26T01:01:28.914Z,89.08
2023-01-26T01:03:56.825Z,89.19
2023-01-26T01:06:24.849Z,89.06
2023-01-26T01:08:52.666Z,89.07
2023-01-26T01:11:20.582Z,89.11
2023-01-26T01:13:48.635Z,88.99
2023-01-26T01:16:17.456Z,88.93
2023-01-26T01:18:46.200Z,88.84
2023-01-26T01:21:17.739Z,88.86
2023-01-26T01:23:45.655Z,88.83
2023-01-26T01:26:15.695Z,88.85
2023-01-26T01:28:44.319Z,88.93
2023-01-26T01:31:15.977Z,88.90
2023-01-26T01:33:44.522Z,88.72
2023-01-26T01:36:16.111Z,88.76
2023-01-26T01:38:45.366Z,88.71
2023-01-26T01:41:15.566Z,88.70
2023-01-26T01:43:43.914Z,88.59
2023-01-26T01:46:32.265Z,88.54
2023-01-26T01:49:10.239Z,88.45
2023-01-26T01:51:45.189Z,88.33
2023-01-26T01:54:20.039Z,88.29
2023-01-26T01:56:53.498Z,88.21
2023-01-26T01:59:22.448Z,88.07
2023-01-26T02:01:53.076Z,87.91
2023-01-26T02:04:25.114Z,87.89
2023-01-26T02:06:59.004Z,87.80
2023-01-26T02:09:53.116Z,87.71
2023-01-26T02:12:29.630Z,87.45
2023-01-26T02:14:58.583Z,87.35
2023-01-26T02:17:27.395Z,87.32
2023-01-26T02:20:15.540Z,87.30
2023-01-26T02:23:06.937Z,87.20
2023-01-26T02:25:42.658Z,87.06
2023-01-26T02:28:10.934Z,86.99
2023-01-26T02:30:39.366Z,87.01
2023-01-26T02:33:08.436Z,86.89
2023-01-26T02:35:36.362Z,86.73
2023-01-26T02:38:04.888Z,86.65
2023-01-26T02:40:55.227Z,86.51
2023-01-26T02:43:26.893Z,86.52
2023-01-26T02:45:55.445Z,86.61
2023-01-26T02:48:46.923Z,86.51
2023-01-26T02:51:14.971Z,86.52
2023-01-26T02:53:43.833Z,86.57
2023-01-26T02:56:11.753Z,86.51
2023-01-26T02:58:39.711Z,86.39
2023-01-26T03:01:07.595Z,86.21
2023-01-26T03:03:45.115Z,86.21
2023-01-26T03:06:15.679Z,86.14
2023-01-26T03:08:43.824Z,86.12
2023-01-26T03:11:11.742Z,86.14
2023-01-26T03:13:39.601Z,85.88
2023-01-26T03:16:10.370Z,85.83
2023-01-26T03:18:57.146Z,85.92
2023-01-26T03:21:43.680Z,85.99
2023-01-26T03:24:32.993Z,86.03
2023-01-26T03:27:20.591Z,86.09
2023-01-26T03:29:48.475Z,86.03
2023-01-26T03:32:16.390Z,85.96
2023-01-26T03:34:44.792Z,85.95
2023-01-26T03:37:12.933Z,86.00
2023-01-26T03:40:10.305Z,86.08
2023-01-26T03:42:57.430Z,86.16
2023-01-26T03:45:43.948Z,86.17
2023-01-26T03:48:31.516Z,85.96
2023-01-26T03:51:18.285Z,85.85
2023-01-26T03:54:04.795Z,85.70
2023-01-26T03:56:33.066Z,85.60
2023-01-26T03:59:11.079Z,85.49
2023-01-26T04:02:06.404Z,85.55
2023-01-26T04:04:54.650Z,85.60
2023-01-26T04:07:45.514Z,85.56
2023-01-26T04:10:13.737Z,85.49
2023-01-26T04:12:43.070Z,85.52
2023-01-26T04:15:35.046Z,85.52
2023-01-26T04:18:27.749Z,85.54
2023-01-26T04:21:15.457Z,85.60
2023-01-26T04:23:45.030Z,85.59
2023-01-26T04:26:13.299Z,85.52
2023-01-26T04:28:41.750Z,85.44
2023-01-26T04:31:09.829Z,85.40
2023-01-26T04:33:38.779Z,85.34
2023-01-26T04:36:09.883Z,85.23
2023-01-26T04:38:41.696Z,85.06
2023-01-26T04:41:09.730Z,85.08
2023-01-26T04:43:44.291Z,84.93
2023-01-26T04:46:12.597Z,84.80
2023-01-26T04:48:42.016Z,84.92
2023-01-26T04:51:17.103Z,84.91
2023-01-26T04:53:44.983Z,84.93
2023-01-26T04:56:32.863Z,84.93
2023-01-26T04:59:08.266Z,84.97
2023-01-26T05:01:38.369Z,85.02
2023-01-26T05:04:10.065Z,85.06
2023-01-26T05:06:42.046Z,84.94
2023-01-26T05:09:10.281Z,85.03
2023-01-26T05:11:39.501Z,85.08
2023-01-26T05:14:07.400Z,85.12
2023-01-26T05:16:48.137Z,85.20
2023-01-26T05:19:27.456Z,85.30
2023-01-26T05:22:20.217Z,85.34
2023-01-26T05:25:07.457Z,85.25
2023-01-26T05:27:42.457Z,85.20
2023-01-26T05:30:14.465Z,85.11
2023-01-26T05:32:43.267Z,84.97
2023-01-26T05:35:11.387Z,84.94
2023-01-26T05:37:39.320Z,84.81
2023-01-26T05:40:08.624Z,84.63
2023-01-26T05:42:36.754Z,84.38
2023-01-26T05:45:12.683Z,84.28
2023-01-26T05:47:44.540Z,84.40
2023-01-26T05:50:13.798Z,84.07
2023-01-26T05:52:46.536Z,84.00
2023-01-26T05:55:14.378Z,84.14
2023-01-26T05:57:42.292Z,84.11
2023-01-26T06:00:13.258Z,84.03
2023-01-26T06:02:49.530Z,84.14
2023-01-26T06:05:18.231Z,84.03
2023-01-26T06:07:46.749Z,84.11
2023-01-26T06:10:26.568Z,84.33
2023-01-26T06:13:01.172Z,84.41
2023-01-26T06:15:43.176Z,84.55
2023-01-26T06:18:11.038Z,84.64
2023-01-26T06:20:39.562Z,84.68
2023-01-26T06:23:11.803Z,84.72
2023-01-26T06:25:40.085Z,84.75
2023-01-26T06:28:08.655Z,84.64
2023-01-26T06:30:38.029Z,84.67
2023-01-26T06:33:09.904Z,84.71
2023-01-26T06:35:39.047Z,84.71
2023-01-26T06:38:11.399Z,84.85
2023-01-26T06:40:39.334Z,84.94
2023-01-26T06:43:07.204Z,85.02
2023-01-26T06:45:35.891Z,85.06
2023-01-26T06:48:04.063Z,85.04
2023-01-26T06:50:35.757Z,85.08
2023-01-26T06:53:25.617Z,85.11
2023-01-26T06:56:12.076Z,85.18
2023-01-26T06:59:00.125Z,85.16
2023-01-26T07:01:49.035Z,85.28
2023-01-26T07:04:17.235Z,85.27
2023-01-26T07:06:45.512Z,85.15
2023-01-26T07:09:13.427Z,85.10
2023-01-26T07:11:41.323Z,85.11
2023-01-26T07:14:09.434Z,85.17
2023-01-26T07:16:42.958Z,85.29
2023-01-26T07:19:14.675Z,85.35
2023-01-26T07:21:42.804Z,85.41
2023-01-26T07:24:10.950Z,85.45
2023-01-26T07:26:39.081Z,85.62
2023-01-26T07:29:07.106Z,85.69
2023-01-26T07:31:34.953Z,85.79
2023-01-26T07:34:02.800Z,85.83
2023-01-26T07:36:30.581Z,85.90
2023-01-26T07:38:58.448Z,85.82
2023-01-26T07:41:26.188Z,85.82
2023-01-26T07:43:53.950Z,85.86
2023-01-26T07:46:21.808Z,85.79
2023-01-26T07:48:49.676Z,85.71
2023-01-26T07:51:17.497Z,85.71
2023-01-26T07:53:49.857Z,85.64
2023-01-26T07:56:22.057Z,85.62
2023-01-26T07:58:53.019Z,85.63
2023-01-26T08:01:22.017Z,85.54
2023-01-26T08:03:52.166Z,85.50
2023-01-26T08:06:21.284Z,85.50
2023-01-26T08:08:54.046Z,85.53
2023-01-26T08:11:24.403Z,85.65
2023-01-26T08:13:52.252Z,85.73
2023-01-26T08:16:20.093Z,85.82
2023-01-26T08:18:49.041Z,86.19
2023-01-26T08:21:18.617Z,86.24
2023-01-26T08:23:52.189Z,86.46
2023-01-26T08:26:20.809Z,86.61
2023-01-26T08:28:49.040Z,86.88
2023-01-26T08:31:20.605Z,86.81
2023-01-26T08:33:51.330Z,86.78
2023-01-26T08:36:22.335Z,86.93
2023-01-26T08:38:51.898Z,86.86
2023-01-26T08:41:20.031Z,87.07
2023-01-26T08:43:48.572Z,87.44
2023-01-26T08:46:16.661Z,87.44
2023-01-26T08:48:44.850Z,87.30
2023-01-26T08:51:12.710Z,87.13
2023-01-26T08:56:27.472Z,86.60
2023-01-26T08:58:55.691Z,86.42
2023-01-26T09:01:23.624Z,86.29
2023-01-26T09:03:53.122Z,86.24
2023-01-26T09:06:21.008Z,86.29
2023-01-26T09:08:48.904Z,86.37
2023-01-26T09:11:17.113Z,86.54
2023-01-26T09:13:44.967Z,86.68
2023-01-26T09:16:19.964Z,86.91
2023-01-26T09:18:53.168Z,86.95
2023-01-26T09:21:24.063Z,87.04
2023-01-26T09:23:52.678Z,86.98
2023-01-26T09:26:20.487Z,86.90
2023-01-26T09:28:54.379Z,87.15
2023-01-26T09:31:22.920Z,87.31
2023-01-26T09:33:51.726Z,87.32
2023-01-26T09:36:19.581Z,87.33
2023-01-26T09:38:47.434Z,87.39
2023-01-26T09:41:34.203Z,87.22
2023-01-26T09:44:11.047Z,87.14
2023-01-26T09:47:08.276Z,87.00
2023-01-26T09:49:56.771Z,86.98
2023-01-26T09:52:38.108Z,86.73
2023-01-26T09:55:17.099Z,86.50
2023-01-26T09:57:55.492Z,86.22
2023-01-26T10:00:32.522Z,86.06
2023-01-26T10:03:21.439Z,86.00
2023-01-26T10:05:59.540Z,85.97
2023-01-26T10:08:45.871Z,85.54
2023-01-26T10:11:41.340Z,85.38
2023-01-26T10:14:18.371Z,85.26
2023-01-26T10:16:50.456Z,85.53
2023-01-26T10:19:36.528Z,86.25
2023-01-26T10:22:18.190Z,86.91
2023-01-26T10:24:50.186Z,87.05
2023-01-26T10:27:19.015Z,86.99
2023-01-26T10:29:46.852Z,87.21
2023-01-26T10:32:18.511Z,87.47
2023-01-26T10:34:49.889Z,87.50
2023-01-26T10:37:29.788Z,87.59
2023-01-26T10:40:01.483Z,87.42
2023-01-26T10:42:34.087Z,87.26
2023-01-26T10:45:24.901Z,86.73
2023-01-26T10:48:24.062Z,86.35
2023-01-26T10:50:54.044Z,86.25
2023-01-26T10:53:29.566Z,85.98
2023-01-26T10:56:05.639Z,85.72
2023-01-26T10:58:54.983Z,85.82
2023-01-26T11:01:27.840Z,85.61
2023-01-26T11:04:06.573Z,85.32
2023-01-26T11:06:35.477Z,85.18
2023-01-26T11:09:15.430Z,84.93
2023-01-26T11:12:02.402Z,84.73
2023-01-26T11:14:32.377Z,84.71
2023-01-26T11:17:22.918Z,84.39
2023-01-26T11:20:40.896Z,83.88
2023-01-26T11:24:02.503Z,83.72
2023-01-26T11:27:12.890Z,83.47
2023-01-26T11:30:11.991Z,83.24
2023-01-26T11:33:04.811Z,83.44
2023-01-26T11:35:54.165Z,83.28
2023-01-26T11:38:45.810Z,82.92
2023-01-26T11:41:22.542Z,82.86
2023-01-26T11:44:25.623Z,82.86
2023-01-26T11:47:30.847Z,82.60
2023-01-26T11:50:30.639Z,82.37
2023-01-26T11:53:36.623Z,83.16
2023-01-26T11:56:58.471Z,83.66
2023-01-26T11:59:38.719Z,84.14
2023-01-26T12:02:34.325Z,84.10
2023-01-26T12:05:16.877Z,83.62
2023-01-26T12:08:12.115Z,83.72
2023-01-26T12:10:49.238Z,83.58
2023-01-26T12:13:44.090Z,83.33
2023-01-26T12:16:30.986Z,82.87
2023-01-26T12:19:11.558Z,82.74
2023-01-26T12:21:45.710Z,82.36
2023-01-26T12:25:00.928Z,82.00
2023-01-26T12:27:31.215Z,81.90
2023-01-26T12:30:33.642Z,81.60
2023-01-26T12:33:01.991Z,81.25
2023-01-26T12:35:49.388Z,81.29
2023-01-26T12:38:36.950Z,81.34
2023-01-26T12:41:42.008Z,81.10
2023-01-26T12:44:44.390Z,81.34
2023-01-26T12:47:37.265Z,81.49
2023-01-26T12:50:43.608Z,82.22
2023-01-26T12:53:22.427Z,82.97
2023-01-26T12:56:09.647Z,83.10
2023-01-26T12:58:47.657Z,83.09
2023-01-26T13:01:24.511Z,82.74
2023-01-26T13:04:02.172Z,82.50
2023-01-26T13:06:30.283Z,82.14
2023-01-26T13:08:58.120Z,81.94
2023-01-26T13:11:53.794Z,81.54
2023-01-26T13:14:43.597Z,81.18
2023-01-26T13:17:16.005Z,80.77
2023-01-26T13:19:43.975Z,80.33
2023-01-26T13:22:24.062Z,79.98
2023-01-26T13:24:59.618Z,80.13
2023-01-26T13:27:39.373Z,80.34
2023-01-26T13:30:22.637Z,80.48
2023-01-26T13:33:05.156Z,80.36
2023-01-26T13:35:35.684Z,80.34
2023-01-26T13:38:17.508Z,80.78
2023-01-26T13:40:50.316Z,81.38
2023-01-26T13:43:32.941Z,81.94
2023-01-26T13:46:26.949Z,82.64
2023-01-26T13:48:57.198Z,83.01
2023-01-26T13:51:29.919Z,83.36
2023-01-26T13:54:10.994Z,83.38
2023-01-26T13:56:42.568Z,83.15
2023-01-26T13:59:19.701Z,82.75
2023-01-26T14:01:51.262Z,82.74
2023-01-26T14:04:31.352Z,82.68
2023-01-26T14:07:05.474Z,82.21
2023-01-26T14:09:47.852Z,82.26
2023-01-26T14:12:27.819Z,82.72
2023-01-26T14:15:00.624Z,83.15
2023-01-26T14:17:33.085Z,83.51
2023-01-26T14:20:03.917Z,83.81
2023-01-26T14:22:31.740Z,83.17
2023-01-26T14:24:59.641Z,83.16
2023-01-26T14:27:42.548Z,83.33
2023-01-26T14:30:23.029Z,83.71
2023-01-26T14:33:04.195Z,83.81
2023-01-26T14:35:32.777Z,83.77
2023-01-26T14:38:17.981Z,83.34
2023-01-26T14:40:52.384Z,82.81
2023-01-26T14:43:21.455Z,82.62
2023-01-26T14:45:56.830Z,82.61
2023-01-26T14:48:34.522Z,82.46
2023-01-26T14:51:07.072Z,82.38
2023-01-26T14:53:35.014Z,81.54
2023-01-26T14:56:02.897Z,81.55
2023-01-26T14:58:33.858Z,81.43
2023-01-26T15:01:03.672Z,81.33
2023-01-26T15:03:38.999Z,80.73
2023-01-26T15:06:29.336Z,80.52
2023-01-26T15:09:04.160Z,80.89
2023-01-26T15:11:59.077Z,80.95
2023-01-26T15:14:49.249Z,80.68
2023-01-26T15:17:30.707Z,80.75
2023-01-26T15:19:58.586Z,80.52
2023-01-26T15:22:27.235Z,80.35
2023-01-26T15:25:23.476Z,80.50
2023-01-26T15:27:58.288Z,80.62
2023-01-26T15:30:32.950Z,80.75
2023-01-26T15:33:02.347Z,80.57
2023-01-26T15:35:34.298Z,80.74
2023-01-26T15:38:13.557Z,80.77
2023-01-26T15:40:41.500Z,80.78
2023-01-26T15:43:16.415Z,80.91
2023-01-26T15:45:57.248Z,80.95
2023-01-26T15:48:26.885Z,80.82
2023-01-26T15:50:54.729Z,80.69
2023-01-26T15:53:23.404Z,80.87
2023-01-26T15:55:53.018Z,80.90
2023-01-26T15:58:22.244Z,80.77
2023-01-26T16:00:51.053Z,80.80
2023-01-26T16:03:22.345Z,80.69
2023-01-26T16:05:50.372Z,80.59
2023-01-26T16:08:19.970Z,80.47
2023-01-26T16:10:48.505Z,80.59
2023-01-26T16:13:19.242Z,80.61
2023-01-26T16:15:53.270Z,80.92
2023-01-26T16:18:21.294Z,81.14
2023-01-26T16:20:50.306Z,81.34
2023-01-26T16:23:27.407Z,81.58
2023-01-26T16:25:56.004Z,81.98
2023-01-26T16:28:23.918Z,82.25
2023-01-26T16:30:51.849Z,82.51
2023-01-26T16:33:24.724Z,82.67
2023-01-26T16:35:53.566Z,82.79
2023-01-26T16:38:21.378Z,82.88
2023-01-26T16:40:49.770Z,83.01
2023-01-26T16:43:25.169Z,83.01
2023-01-26T16:45:53.162Z,83.05
2023-01-26T16:48:22.794Z,82.97
2023-01-26T16:50:53.843Z,82.86
2023-01-26T16:53:35.930Z,82.89
2023-01-26T16:56:04.153Z,82.96
2023-01-26T16:58:33.304Z,83.02
2023-01-26T17:01:01.280Z,82.98
2023-01-26T17:03:29.402Z,83.05
2023-01-26T17:05:57.744Z,83.05
2023-01-26T17:08:25.609Z,83.06
2023-01-26T17:11:01.937Z,83.14
2023-01-26T17:13:31.618Z,83.08
2023-01-26T17:15:59.772Z,83.12
2023-01-26T17:18:27.745Z,83.07
2023-01-26T17:21:03.133Z,82.74
2023-01-26T17:23:31.502Z,82.70
2023-01-26T17:26:00.750Z,82.50
2023-01-26T17:28:28.785Z,81.85
2023-01-26T17:30:57.849Z,81.63
2023-01-26T17:33:29.878Z,81.41
2023-01-26T17:36:02.110Z,81.21
2023-01-26T17:38:30.290Z,81.02
2023-01-26T17:40:59.231Z,80.54
2023-01-26T17:43:27.641Z,80.31
2023-01-26T17:46:08.756Z,80.02
2023-01-26T17:48:37.796Z,79.34
2023-01-26T17:51:11.129Z,79.19
2023-01-26T17:53:41.308Z,79.10
2023-01-26T17:56:13.151Z,78.42
2023-01-26T17:58:41.608Z,77.75
2023-01-26T18:01:10.369Z,77.07
2023-01-26T18:03:43.173Z,76.77
2023-01-26T18:06:12.241Z,76.54
2023-01-26T18:08:40.804Z,76.11
2023-01-26T18:11:14.146Z,76.09
2023-01-26T18:13:42.786Z,75.96
2023-01-26T18:16:16.092Z,76.08
2023-01-26T18:18:44.370Z,76.01
2023-01-26T18:21:24.906Z,75.64
2023-01-26T18:23:56.111Z,75.67
2023-01-26T18:26:28.188Z,75.40
2023-01-26T18:28:55.968Z,75.56
2023-01-26T18:31:30.226Z,75.80
2023-01-26T18:34:01.100Z,75.67
2023-01-26T18:36:29.908Z,75.77
2023-01-26T18:39:06.893Z,75.55
2023-01-26T18:41:35.304Z,75.46
2023-01-26T18:44:03.920Z,75.50
2023-01-26T18:46:31.970Z,75.73
2023-01-26T18:49:03.679Z,75.74
2023-01-26T18:51:35.502Z,75.74
2023-01-26T18:54:04.845Z,75.44
2023-01-26T18:56:33.727Z,75.44
2023-01-26T18:59:01.988Z,75.64
2023-01-26T19:01:29.993Z,75.60
2023-01-26T19:03:58.981Z,75.71
2023-01-26T19:06:28.788Z,75.84
2023-01-26T19:09:01.365Z,76.13
2023-01-26T19:11:33.571Z,76.33
2023-01-26T19:14:03.233Z,76.48
2023-01-26T19:16:31.964Z,76.42
2023-01-26T19:18:59.962Z,76.65
2023-01-26T19:21:28.577Z,76.35
2023-01-26T19:24:05.669Z,75.91
2023-01-26T19:26:34.198Z,75.93
2023-01-26T19:29:02.330Z,76.15
2023-01-26T19:31:30.831Z,76.35
2023-01-26T19:34:07.823Z,76.59
2023-01-26T19:36:36.995Z,76.80
2023-01-26T19:39:06.297Z,76.95
2023-01-26T19:41:34.999Z,77.33
2023-01-26T19:44:02.864Z,77.57
2023-01-26T19:46:31.029Z,77.75
2023-01-26T19:48:58.981Z,77.77
2023-01-26T19:51:28.107Z,77.72
2023-01-26T19:53:58.590Z,78.19
2023-01-26T19:56:30.620Z,78.37
2023-01-26T19:59:02.826Z,78.75
2023-01-26T20:01:32.308Z,79.42
2023-01-26T20:04:04.991Z,79.97
2023-01-26T20:06:35.803Z,80.40
2023-01-26T20:09:07.055Z,80.81
2023-01-26T20:11:35.847Z,81.26
2023-01-26T20:14:11.169Z,82.71
2023-01-26T20:16:39.689Z,83.62
2023-01-26T20:19:07.675Z,83.67
2023-01-26T20:21:35.954Z,83.85
2023-01-26T20:24:05.985Z,84.17
2023-01-26T20:26:35.988Z,84.46
2023-01-26T20:29:05.174Z,84.39
2023-01-26T20:31:33.332Z,84.32
2023-01-26T20:34:02.531Z,84.38
2023-01-26T20:36:31.740Z,84.45
2023-01-26T20:39:00.227Z,84.17
2023-01-26T20:41:30.814Z,84.47
2023-01-26T20:44:03.290Z,84.50
2023-01-26T20:46:41.865Z,84.63
2023-01-26T20:49:17.212Z,84.39
2023-01-26T20:51:46.256Z,84.56
2023-01-26T20:54:16.674Z,84.70
2023-01-26T20:56:49.881Z,84.64
2023-01-26T20:59:19.079Z,84.71
2023-01-26T21:01:47.103Z,84.78
2023-01-26T21:04:14.970Z,84.77
2023-01-26T21:06:43.136Z,84.82
2023-01-26T21:09:12.884Z,84.59
2023-01-26T21:11:41.102Z,84.67
2023-01-26T21:14:13.679Z,84.86
2023-01-26T21:16:42.350Z,84.89
2023-01-26T21:19:10.805Z,84.74
2023-01-26T21:21:39.129Z,84.88
2023-01-26T21:24:07.583Z,84.89
2023-01-26T21:26:35.557Z,84.87
2023-01-26T21:29:05.442Z,84.74
2023-01-26T21:31:34.573Z,84.70
2023-01-26T21:34:02.653Z,84.64
2023-01-26T21:36:32.552Z,84.84
2023-01-26T21:39:01.435Z,84.88
2023-01-26T21:41:51.712Z,85.03
2023-01-26T21:44:24.857Z,84.90
2023-01-26T21:47:00.142Z,84.81
2023-01-26T21:49:29.480Z,84.80
2023-01-26T21:52:16.615Z,84.94
2023-01-26T21:54:44.481Z,85.01
2023-01-26T21:57:30.869Z,85.05
2023-01-26T21:59:59.045Z,85.12
2023-01-26T22:02:27.140Z,85.01
2023-01-26T22:04:55.112Z,85.05
2023-01-26T22:07:23.027Z,85.12
2023-01-26T22:09:50.902Z,85.01
2023-01-26T22:12:18.919Z,85.00
2023-01-26T22:14:46.748Z,84.97
2023-01-26T22:17:14.560Z,84.96
2023-01-26T22:19:42.527Z,84.87
2023-01-26T22:22:10.775Z,84.93
2023-01-26T22:24:39.150Z,84.97
2023-01-26T22:27:08.374Z,85.04
2023-01-26T22:29:36.788Z,84.93
2023-01-26T22:32:05.355Z,85.08
2023-01-26T22:34:33.501Z,85.18
2023-01-26T22:37:01.502Z,85.15
2023-01-26T22:39:29.414Z,85.07
2023-01-26T22:41:57.323Z,85.07
2023-01-26T22:44:25.122Z,85.03
2023-01-26T22:46:52.914Z,85.11
2023-01-26T22:49:20.838Z,85.04
2023-01-26T22:51:48.728Z,84.93
2023-01-26T22:54:16.493Z,84.73
2023-01-26T22:56:44.312Z,84.60
2023-01-26T22:59:12.168Z,84.49
2023-01-26T23:01:40.175Z,84.43
2023-01-26T23:04:08.777Z,84.42
2023-01-26T23:06:36.672Z,84.26
2023-01-26T23:09:04.779Z,84.25
2023-01-26T23:11:32.781Z,84.24
2023-01-26T23:14:00.927Z,84.22
2023-01-26T23:16:30.072Z,84.17
2023-01-26T23:18:59.872Z,84.09
2023-01-26T23:21:29.963Z,84.11
2023-01-26T23:23:58.603Z,84.01
2023-01-26T23:26:26.981Z,83.95
2023-01-26T23:28:55.028Z,83.90
2023-01-26T23:31:23.163Z,83.82
2023-01-26T23:33:51.196Z,83.70
2023-01-26T23:36:20.589Z,83.59
2023-01-26T23:38:48.663Z,83.57
2023-01-26T23:41:17.449Z,83.49
2023-01-26T23:43:45.787Z,83.42
2023-01-26T23:46:13.826Z,83.42
2023-01-26T23:48:42.311Z,83.46
2023-01-26T23:51:13.589Z,83.48
2023-01-26T23:53:41.657Z,83.55
2023-01-26T23:59:45.564Z,83.37
